Rona II — MPKR2 — position and weather

sailwx.info

Track history (hours):
 
Tides and Currents Weather Stations Pressure Air Temp Water Temp Dewpoint Dewpoint Depression Visibility Wind Speed Wind Dir Waves Ship Positions

Rona II

Last reported at 2016-Aug-27 07:30 UTC. Time now 2016-Aug-31 16:09 UTC.
Position N 50°41' W 001°49'.

Length 22 m.

Type: Sailing vessel. MMSI: 232714000.

Date/timePositionNaut miles runAvg speedWind from/ knotsBaromVisibWave heightAir tempDewpointWater temp
2016-Aug-27 07:30N 50°41' W 001°49'4 4.4
2016-Aug-27 06:29N 50°39' W 001°56'0 0.1
2016-Aug-27 04:33N 50°39' W 001°56'0 0.0
2016-Aug-26 23:30N 50°39' W 001°56'0 0.0
2016-Aug-26 22:24N 50°39' W 001°56'0 0.0
2016-Aug-26 21:30N 50°39' W 001°56'0 0.0
2016-Aug-26 20:27N 50°39' W 001°56'1 0.2
2016-Aug-26 15:32N 50°39' W 001°55'51 1.8
2016-Aug-25 11:28N 50°19' W 003°09'6 6.1
2016-Aug-25 10:32N 50°16' W 003°17'6 5.8
2016-Aug-25 09:33N 50°14' W 003°25'  
Track history (hours):
 
Tides and Currents Weather Stations Pressure Air Temp Water Temp Dewpoint Dewpoint Depression Visibility Wind Speed Wind Dir Waves Ship Positions

Rona II

Last reported at 2016-Aug-27 07:30 UTC. Time now 2016-Aug-31 16:09 UTC.
Position N 50°41' W 001°49'.

Length 22 m.

Type: Sailing vessel. MMSI: 232714000.

Date/timePositionNaut miles runAvg speedWind from/ knotsBaromVisibWave heightAir tempDewpointWater temp
2016-Aug-27 07:30N 50°41' W 001°49'4 4.4
2016-Aug-27 06:29N 50°39' W 001°56'0 0.1
2016-Aug-27 04:33N 50°39' W 001°56'0 0.0
2016-Aug-26 23:30N 50°39' W 001°56'0 0.0
2016-Aug-26 22:24N 50°39' W 001°56'0 0.0
2016-Aug-26 21:30N 50°39' W 001°56'0 0.0
2016-Aug-26 20:27N 50°39' W 001°56'1 0.2
2016-Aug-26 15:32N 50°39' W 001°55'51 1.8
2016-Aug-25 11:28N 50°19' W 003°09'6 6.1
2016-Aug-25 10:32N 50°16' W 003°17'6 5.8
2016-Aug-25 09:33N 50°14' W 003°25'  

Dump ship's entire track history